sensor_id;sensor_type;location;lat;lon;timestamp;P1;durP1;ratioP1;P2;durP2;ratioP2
53833;SDS011;39735;51.432;5.482;2023-08-17T00:03:05;2.30;;;1.42;;
53833;SDS011;39735;51.432;5.482;2023-08-17T00:06:29;1.38;;;1.27;;
53833;SDS011;39735;51.432;5.482;2023-08-17T00:09:53;4.68;;;1.60;;
53833;SDS011;39735;51.432;5.482;2023-08-17T00:13:17;9.65;;;2.17;;
53833;SDS011;39735;51.432;5.482;2023-08-17T00:16:41;27.00;;;1.63;;
53833;SDS011;39735;51.432;5.482;2023-08-17T00:20:05;3.53;;;1.60;;
53833;SDS011;39735;51.432;5.482;2023-08-17T00:23:32;22.67;;;2.83;;
53833;SDS011;39735;51.432;5.482;2023-08-17T00:26:56;4.03;;;1.40;;
53833;SDS011;39735;51.432;5.482;2023-08-17T00:30:19;14.45;;;2.17;;
53833;SDS011;39735;51.432;5.482;2023-08-17T00:33:43;6.55;;;2.35;;
53833;SDS011;39735;51.432;5.482;2023-08-17T00:37:07;6.28;;;2.13;;
53833;SDS011;39735;51.432;5.482;2023-08-17T00:40:31;11.13;;;1.92;;
53833;SDS011;39735;51.432;5.482;2023-08-17T00:43:55;15.15;;;1.77;;
53833;SDS011;39735;51.432;5.482;2023-08-17T00:47:19;13.05;;;2.25;;
53833;SDS011;39735;51.432;5.482;2023-08-17T00:50:43;7.50;;;1.63;;
53833;SDS011;39735;51.432;5.482;2023-08-17T00:54:09;8.90;;;2.22;;
53833;SDS011;39735;51.432;5.482;2023-08-17T00:57:34;3.65;;;1.90;;
53833;SDS011;39735;51.432;5.482;2023-08-17T01:00:58;22.67;;;3.05;;
53833;SDS011;39735;51.432;5.482;2023-08-17T01:04:22;4.20;;;1.20;;
53833;SDS011;39735;51.432;5.482;2023-08-17T01:07:47;17.67;;;2.03;;
53833;SDS011;39735;51.432;5.482;2023-08-17T01:15:08;14.77;;;2.17;;
53833;SDS011;39735;51.432;5.482;2023-08-17T01:18:35;14.73;;;2.00;;
53833;SDS011;39735;51.432;5.482;2023-08-17T01:22:05;4.68;;;2.83;;
53833;SDS011;39735;51.432;5.482;2023-08-17T01:25:31;6.25;;;1.85;;
53833;SDS011;39735;51.432;5.482;2023-08-17T01:28:55;3.50;;;1.60;;
53833;SDS011;39735;51.432;5.482;2023-08-17T01:32:24;7.47;;;1.70;;
53833;SDS011;39735;51.432;5.482;2023-08-17T01:39:27;10.40;;;1.75;;
53833;SDS011;39735;51.432;5.482;2023-08-17T01:42:53;35.15;;;3.67;;
53833;SDS011;39735;51.432;5.482;2023-08-17T01:46:18;12.30;;;2.53;;
53833;SDS011;39735;51.432;5.482;2023-08-17T01:49:45;15.10;;;1.85;;
53833;SDS011;39735;51.432;5.482;2023-08-17T01:53:09;7.20;;;2.28;;
53833;SDS011;39735;51.432;5.482;2023-08-17T01:56:33;5.22;;;1.85;;
53833;SDS011;39735;51.432;5.482;2023-08-17T01:59:57;14.45;;;3.00;;
53833;SDS011;39735;51.432;5.482;2023-08-17T02:03:21;5.80;;;1.90;;
53833;SDS011;39735;51.432;5.482;2023-08-17T02:06:45;14.20;;;2.35;;
53833;SDS011;39735;51.432;5.482;2023-08-17T02:10:09;14.20;;;2.88;;
53833;SDS011;39735;51.432;5.482;2023-08-17T02:13:35;5.50;;;2.28;;
53833;SDS011;39735;51.432;5.482;2023-08-17T02:16:58;9.45;;;2.28;;
53833;SDS011;39735;51.432;5.482;2023-08-17T02:20:25;11.77;;;1.85;;
53833;SDS011;39735;51.432;5.482;2023-08-17T02:23:49;15.20;;;3.40;;
53833;SDS011;39735;51.432;5.482;2023-08-17T02:27:13;2.67;;;1.77;;
53833;SDS011;39735;51.432;5.482;2023-08-17T02:30:37;4.47;;;1.45;;
53833;SDS011;39735;51.432;5.482;2023-08-17T02:34:01;13.75;;;2.15;;
53833;SDS011;39735;51.432;5.482;2023-08-17T02:37:25;6.35;;;1.70;;
53833;SDS011;39735;51.432;5.482;2023-08-17T02:40:49;7.13;;;2.08;;
53833;SDS011;39735;51.432;5.482;2023-08-17T02:44:14;8.60;;;2.78;;
53833;SDS011;39735;51.432;5.482;2023-08-17T02:47:38;3.92;;;1.67;;
53833;SDS011;39735;51.432;5.482;2023-08-17T02:51:02;5.68;;;2.05;;
53833;SDS011;39735;51.432;5.482;2023-08-17T02:54:26;7.68;;;2.15;;
53833;SDS011;39735;51.432;5.482;2023-08-17T02:57:50;9.27;;;2.70;;
53833;SDS011;39735;51.432;5.482;2023-08-17T03:01:13;7.18;;;2.35;;
53833;SDS011;39735;51.432;5.482;2023-08-17T03:04:38;9.63;;;2.60;;
53833;SDS011;39735;51.432;5.482;2023-08-17T03:08:02;9.23;;;2.05;;
53833;SDS011;39735;51.432;5.482;2023-08-17T03:11:26;10.30;;;2.83;;
53833;SDS011;39735;51.432;5.482;2023-08-17T03:14:49;10.27;;;2.30;;
53833;SDS011;39735;51.432;5.482;2023-08-17T03:18:13;6.45;;;2.28;;
53833;SDS011;39735;51.432;5.482;2023-08-17T03:21:37;8.85;;;1.75;;
53833;SDS011;39735;51.432;5.482;2023-08-17T03:25:01;19.25;;;2.28;;
53833;SDS011;39735;51.432;5.482;2023-08-17T03:28:26;13.93;;;2.03;;
53833;SDS011;39735;51.432;5.482;2023-08-17T03:31:51;12.57;;;2.30;;
53833;SDS011;39735;51.432;5.482;2023-08-17T03:35:15;15.20;;;3.10;;
53833;SDS011;39735;51.432;5.482;2023-08-17T03:38:39;11.52;;;2.35;;
53833;SDS011;39735;51.432;5.482;2023-08-17T03:42:03;7.85;;;1.92;;
53833;SDS011;39735;51.432;5.482;2023-08-17T03:45:27;8.98;;;2.10;;
53833;SDS011;39735;51.432;5.482;2023-08-17T03:48:50;8.55;;;2.97;;
53833;SDS011;39735;51.432;5.482;2023-08-17T03:52:14;7.72;;;2.70;;
53833;SDS011;39735;51.432;5.482;2023-08-17T03:55:38;12.82;;;3.88;;
53833;SDS011;39735;51.432;5.482;2023-08-17T03:59:02;5.38;;;1.80;;
53833;SDS011;39735;51.432;5.482;2023-08-17T04:02:26;4.43;;;1.48;;
53833;SDS011;39735;51.432;5.482;2023-08-17T04:05:50;4.68;;;1.70;;
53833;SDS011;39735;51.432;5.482;2023-08-17T04:09:14;10.63;;;2.55;;
53833;SDS011;39735;51.432;5.482;2023-08-17T04:12:38;10.82;;;2.17;;
53833;SDS011;39735;51.432;5.482;2023-08-17T04:16:01;4.97;;;1.83;;
53833;SDS011;39735;51.432;5.482;2023-08-17T04:19:25;8.23;;;2.30;;
53833;SDS011;39735;51.432;5.482;2023-08-17T04:22:50;38.15;;;4.78;;
53833;SDS011;39735;51.432;5.482;2023-08-17T04:26:14;8.55;;;1.98;;
53833;SDS011;39735;51.432;5.482;2023-08-17T04:29:39;6.93;;;1.80;;
53833;SDS011;39735;51.432;5.482;2023-08-17T04:33:03;6.35;;;2.20;;
53833;SDS011;39735;51.432;5.482;2023-08-17T04:36:27;12.85;;;2.50;;
53833;SDS011;39735;51.432;5.482;2023-08-17T04:39:51;5.32;;;1.52;;
53833;SDS011;39735;51.432;5.482;2023-08-17T04:43:15;20.67;;;2.15;;
53833;SDS011;39735;51.432;5.482;2023-08-17T04:46:39;11.60;;;1.73;;
53833;SDS011;39735;51.432;5.482;2023-08-17T04:50:02;7.40;;;2.30;;
53833;SDS011;39735;51.432;5.482;2023-08-17T04:53:27;9.80;;;2.10;;
53833;SDS011;39735;51.432;5.482;2023-08-17T04:56:51;17.80;;;3.75;;
53833;SDS011;39735;51.432;5.482;2023-08-17T05:00:15;7.18;;;2.00;;
53833;SDS011;39735;51.432;5.482;2023-08-17T05:03:39;2.55;;;1.30;;
53833;SDS011;39735;51.432;5.482;2023-08-17T05:07:04;13.35;;;3.28;;
53833;SDS011;39735;51.432;5.482;2023-08-17T05:10:29;9.93;;;2.35;;
53833;SDS011;39735;51.432;5.482;2023-08-17T05:13:52;3.17;;;1.58;;
53833;SDS011;39735;51.432;5.482;2023-08-17T05:17:16;5.80;;;2.20;;
53833;SDS011;39735;51.432;5.482;2023-08-17T05:20:40;6.47;;;2.55;;
53833;SDS011;39735;51.432;5.482;2023-08-17T05:24:04;8.20;;;1.70;;
53833;SDS011;39735;51.432;5.482;2023-08-17T05:27:28;5.00;;;1.65;;
53833;SDS011;39735;51.432;5.482;2023-08-17T05:30:53;6.05;;;2.03;;
53833;SDS011;39735;51.432;5.482;2023-08-17T05:34:17;10.60;;;2.13;;
53833;SDS011;39735;51.432;5.482;2023-08-17T05:37:41;8.10;;;3.17;;
53833;SDS011;39735;51.432;5.482;2023-08-17T05:41:04;16.83;;;2.72;;
53833;SDS011;39735;51.432;5.482;2023-08-17T05:44:28;13.95;;;3.50;;
53833;SDS011;39735;51.432;5.482;2023-08-17T05:47:52;3.85;;;1.58;;
53833;SDS011;39735;51.432;5.482;2023-08-17T05:51:16;6.25;;;2.45;;
53833;SDS011;39735;51.432;5.482;2023-08-17T05:54:40;11.85;;;2.70;;
53833;SDS011;39735;51.432;5.482;2023-08-17T05:58:04;4.20;;;2.35;;
53833;SDS011;39735;51.432;5.482;2023-08-17T06:01:28;11.68;;;1.90;;
53833;SDS011;39735;51.432;5.482;2023-08-17T06:04:52;11.70;;;2.55;;
53833;SDS011;39735;51.432;5.482;2023-08-17T06:08:17;6.47;;;2.50;;
53833;SDS011;39735;51.432;5.482;2023-08-17T06:11:41;30.52;;;3.28;;
53833;SDS011;39735;51.432;5.482;2023-08-17T06:15:05;15.73;;;3.67;;
53833;SDS011;39735;51.432;5.482;2023-08-17T06:18:29;6.35;;;1.88;;
53833;SDS011;39735;51.432;5.482;2023-08-17T06:21:53;12.70;;;3.20;;
53833;SDS011;39735;51.432;5.482;2023-08-17T06:25:17;15.02;;;2.47;;
53833;SDS011;39735;51.432;5.482;2023-08-17T06:28:41;13.80;;;2.88;;
53833;SDS011;39735;51.432;5.482;2023-08-17T06:32:05;13.60;;;2.85;;
53833;SDS011;39735;51.432;5.482;2023-08-17T06:35:29;22.30;;;2.80;;
53833;SDS011;39735;51.432;5.482;2023-08-17T06:38:57;9.57;;;2.25;;
53833;SDS011;39735;51.432;5.482;2023-08-17T06:42:21;7.95;;;2.65;;
53833;SDS011;39735;51.432;5.482;2023-08-17T06:45:45;11.43;;;3.05;;
53833;SDS011;39735;51.432;5.482;2023-08-17T06:49:08;14.45;;;3.25;;
53833;SDS011;39735;51.432;5.482;2023-08-17T06:52:33;15.43;;;3.53;;
53833;SDS011;39735;51.432;5.482;2023-08-17T06:55:56;13.68;;;4.13;;
53833;SDS011;39735;51.432;5.482;2023-08-17T06:59:20;7.78;;;3.25;;
53833;SDS011;39735;51.432;5.482;2023-08-17T07:02:46;7.97;;;2.00;;
53833;SDS011;39735;51.432;5.482;2023-08-17T07:06:09;8.43;;;2.58;;
53833;SDS011;39735;51.432;5.482;2023-08-17T07:09:33;9.63;;;2.70;;
53833;SDS011;39735;51.432;5.482;2023-08-17T07:12:57;8.70;;;2.35;;
53833;SDS011;39735;51.432;5.482;2023-08-17T07:16:21;10.98;;;2.58;;
53833;SDS011;39735;51.432;5.482;2023-08-17T07:19:45;11.57;;;2.97;;
53833;SDS011;39735;51.432;5.482;2023-08-17T07:23:09;15.43;;;6.05;;
53833;SDS011;39735;51.432;5.482;2023-08-17T07:26:37;10.07;;;3.05;;
53833;SDS011;39735;51.432;5.482;2023-08-17T07:30:01;5.40;;;3.58;;
53833;SDS011;39735;51.432;5.482;2023-08-17T07:33:24;18.23;;;3.53;;
53833;SDS011;39735;51.432;5.482;2023-08-17T07:36:48;5.78;;;2.63;;
53833;SDS011;39735;51.432;5.482;2023-08-17T07:40:12;12.90;;;3.90;;
53833;SDS011;39735;51.432;5.482;2023-08-17T07:43:36;4.57;;;2.38;;
53833;SDS011;39735;51.432;5.482;2023-08-17T07:47:00;16.92;;;3.13;;
53833;SDS011;39735;51.432;5.482;2023-08-17T07:50:24;17.27;;;2.88;;
53833;SDS011;39735;51.432;5.482;2023-08-17T07:53:48;16.20;;;4.25;;
53833;SDS011;39735;51.432;5.482;2023-08-17T07:57:12;12.73;;;3.05;;
53833;SDS011;39735;51.432;5.482;2023-08-17T08:00:36;7.97;;;2.72;;
53833;SDS011;39735;51.432;5.482;2023-08-17T08:04:00;5.55;;;3.00;;
53833;SDS011;39735;51.432;5.482;2023-08-17T08:07:24;19.88;;;3.80;;
53833;SDS011;39735;51.432;5.482;2023-08-17T08:10:48;7.97;;;3.05;;
53833;SDS011;39735;51.432;5.482;2023-08-17T08:14:11;8.35;;;2.83;;
53833;SDS011;39735;51.432;5.482;2023-08-17T08:17:35;11.65;;;3.30;;
53833;SDS011;39735;51.432;5.482;2023-08-17T08:20:59;9.15;;;2.83;;
53833;SDS011;39735;51.432;5.482;2023-08-17T08:24:23;16.10;;;3.85;;
53833;SDS011;39735;51.432;5.482;2023-08-17T08:27:47;22.20;;;3.83;;
53833;SDS011;39735;51.432;5.482;2023-08-17T08:31:11;22.08;;;5.78;;
53833;SDS011;39735;51.432;5.482;2023-08-17T08:34:35;10.30;;;4.72;;
53833;SDS011;39735;51.432;5.482;2023-08-17T08:37:59;21.10;;;4.32;;
53833;SDS011;39735;51.432;5.482;2023-08-17T08:41:23;6.80;;;2.75;;
53833;SDS011;39735;51.432;5.482;2023-08-17T08:44:49;5.68;;;3.65;;
53833;SDS011;39735;51.432;5.482;2023-08-17T08:51:42;7.35;;;3.72;;
53833;SDS011;39735;51.432;5.482;2023-08-17T08:55:11;13.30;;;4.25;;
53833;SDS011;39735;51.432;5.482;2023-08-17T08:58:36;9.57;;;4.63;;
53833;SDS011;39735;51.432;5.482;2023-08-17T09:02:00;17.48;;;5.97;;
53833;SDS011;39735;51.432;5.482;2023-08-17T09:05:24;8.50;;;4.05;;
53833;SDS011;39735;51.432;5.482;2023-08-17T09:08:48;12.50;;;4.03;;
53833;SDS011;39735;51.432;5.482;2023-08-17T09:12:12;14.32;;;4.07;;
53833;SDS011;39735;51.432;5.482;2023-08-17T09:15:36;15.15;;;4.38;;
53833;SDS011;39735;51.432;5.482;2023-08-17T09:19:00;31.40;;;6.25;;
53833;SDS011;39735;51.432;5.482;2023-08-17T09:22:45;16.50;;;4.18;;
53833;SDS011;39735;51.432;5.482;2023-08-17T09:26:09;18.98;;;5.03;;
53833;SDS011;39735;51.432;5.482;2023-08-17T09:29:33;10.48;;;3.80;;
53833;SDS011;39735;51.432;5.482;2023-08-17T09:32:57;13.85;;;3.67;;
53833;SDS011;39735;51.432;5.482;2023-08-17T09:36:26;29.55;;;7.88;;
53833;SDS011;39735;51.432;5.482;2023-08-17T09:39:51;22.93;;;5.50;;
53833;SDS011;39735;51.432;5.482;2023-08-17T09:43:16;16.00;;;5.90;;
53833;SDS011;39735;51.432;5.482;2023-08-17T09:46:44;20.08;;;6.25;;
53833;SDS011;39735;51.432;5.482;2023-08-17T09:50:08;16.35;;;4.72;;
53833;SDS011;39735;51.432;5.482;2023-08-17T09:53:35;31.23;;;6.68;;
53833;SDS011;39735;51.432;5.482;2023-08-17T09:56:59;13.40;;;5.47;;
53833;SDS011;39735;51.432;5.482;2023-08-17T10:00:23;32.03;;;10.13;;
53833;SDS011;39735;51.432;5.482;2023-08-17T10:03:48;10.27;;;5.10;;
53833;SDS011;39735;51.432;5.482;2023-08-17T10:07:20;17.02;;;5.57;;
53833;SDS011;39735;51.432;5.482;2023-08-17T10:10:44;47.50;;;8.43;;
53833;SDS011;39735;51.432;5.482;2023-08-17T10:14:09;16.13;;;6.55;;
53833;SDS011;39735;51.432;5.482;2023-08-17T10:17:58;11.55;;;6.25;;
53833;SDS011;39735;51.432;5.482;2023-08-17T10:21:24;25.30;;;6.90;;
53833;SDS011;39735;51.432;5.482;2023-08-17T10:25:00;23.23;;;6.32;;
53833;SDS011;39735;51.432;5.482;2023-08-17T10:28:25;21.95;;;6.57;;
53833;SDS011;39735;51.432;5.482;2023-08-17T10:31:49;30.75;;;9.10;;
53833;SDS011;39735;51.432;5.482;2023-08-17T10:35:13;35.05;;;8.75;;
53833;SDS011;39735;51.432;5.482;2023-08-17T10:38:38;25.30;;;7.00;;
53833;SDS011;39735;51.432;5.482;2023-08-17T10:42:05;12.35;;;5.93;;
53833;SDS011;39735;51.432;5.482;2023-08-17T10:45:33;25.20;;;8.65;;
53833;SDS011;39735;51.432;5.482;2023-08-17T10:49:00;25.75;;;8.90;;
53833;SDS011;39735;51.432;5.482;2023-08-17T10:52:31;18.10;;;7.05;;
53833;SDS011;39735;51.432;5.482;2023-08-17T10:55:59;16.40;;;7.03;;
53833;SDS011;39735;51.432;5.482;2023-08-17T10:59:26;24.80;;;9.05;;
53833;SDS011;39735;51.432;5.482;2023-08-17T11:02:58;20.80;;;7.88;;
53833;SDS011;39735;51.432;5.482;2023-08-17T11:06:38;26.55;;;8.02;;
53833;SDS011;39735;51.432;5.482;2023-08-17T11:10:38;20.88;;;7.78;;
53833;SDS011;39735;51.432;5.482;2023-08-17T11:13:56;24.08;;;9.20;;
53833;SDS011;39735;51.432;5.482;2023-08-17T11:17:22;22.88;;;8.32;;
53833;SDS011;39735;51.432;5.482;2023-08-17T11:20:47;30.83;;;7.40;;
53833;SDS011;39735;51.432;5.482;2023-08-17T11:24:11;25.00;;;9.20;;
53833;SDS011;39735;51.432;5.482;2023-08-17T11:27:35;28.17;;;9.40;;
53833;SDS011;39735;51.432;5.482;2023-08-17T11:31:04;38.78;;;10.75;;
53833;SDS011;39735;51.432;5.482;2023-08-17T11:34:29;19.92;;;8.63;;
53833;SDS011;39735;51.432;5.482;2023-08-17T11:37:53;24.42;;;7.93;;
53833;SDS011;39735;51.432;5.482;2023-08-17T11:41:18;16.40;;;8.00;;
53833;SDS011;39735;51.432;5.482;2023-08-17T11:44:42;21.35;;;8.63;;
53833;SDS011;39735;51.432;5.482;2023-08-17T11:48:06;17.38;;;8.55;;
53833;SDS011;39735;51.432;5.482;2023-08-17T11:51:31;31.65;;;10.85;;
53833;SDS011;39735;51.432;5.482;2023-08-17T11:54:57;27.25;;;8.25;;
53833;SDS011;39735;51.432;5.482;2023-08-17T11:58:35;29.02;;;8.32;;
53833;SDS011;39735;51.432;5.482;2023-08-17T12:02:00;20.58;;;9.30;;
53833;SDS011;39735;51.432;5.482;2023-08-17T12:05:25;32.10;;;9.70;;
53833;SDS011;39735;51.432;5.482;2023-08-17T12:08:49;23.92;;;8.07;;
53833;SDS011;39735;51.432;5.482;2023-08-17T12:12:17;18.15;;;9.45;;
53833;SDS011;39735;51.432;5.482;2023-08-17T12:15:41;38.40;;;13.82;;
53833;SDS011;39735;51.432;5.482;2023-08-17T12:19:13;36.78;;;10.02;;
53833;SDS011;39735;51.432;5.482;2023-08-17T12:22:43;30.95;;;10.05;;
53833;SDS011;39735;51.432;5.482;2023-08-17T12:26:10;46.00;;;10.68;;
53833;SDS011;39735;51.432;5.482;2023-08-17T12:29:34;26.17;;;10.40;;
53833;SDS011;39735;51.432;5.482;2023-08-17T12:33:01;27.58;;;8.88;;
53833;SDS011;39735;51.432;5.482;2023-08-17T12:36:24;14.35;;;8.52;;
53833;SDS011;39735;51.432;5.482;2023-08-17T12:39:48;21.38;;;9.38;;
53833;SDS011;39735;51.432;5.482;2023-08-17T12:43:12;11.52;;;6.90;;
53833;SDS011;39735;51.432;5.482;2023-08-17T12:46:38;14.85;;;8.07;;
53833;SDS011;39735;51.432;5.482;2023-08-17T12:50:03;13.95;;;8.75;;
53833;SDS011;39735;51.432;5.482;2023-08-17T12:53:27;29.88;;;8.43;;
53833;SDS011;39735;51.432;5.482;2023-08-17T12:56:51;25.80;;;7.78;;
53833;SDS011;39735;51.432;5.482;2023-08-17T13:00:15;30.05;;;7.90;;
53833;SDS011;39735;51.432;5.482;2023-08-17T13:03:39;18.63;;;8.80;;
53833;SDS011;39735;51.432;5.482;2023-08-17T13:07:04;14.30;;;8.23;;
53833;SDS011;39735;51.432;5.482;2023-08-17T13:10:28;19.25;;;9.50;;
53833;SDS011;39735;51.432;5.482;2023-08-17T13:13:52;22.30;;;6.90;;
53833;SDS011;39735;51.432;5.482;2023-08-17T13:17:17;26.90;;;7.60;;
53833;SDS011;39735;51.432;5.482;2023-08-17T13:20:41;25.63;;;7.32;;
53833;SDS011;39735;51.432;5.482;2023-08-17T13:24:04;18.38;;;9.32;;
53833;SDS011;39735;51.432;5.482;2023-08-17T13:27:29;10.65;;;7.28;;
53833;SDS011;39735;51.432;5.482;2023-08-17T13:30:52;17.48;;;7.32;;
53833;SDS011;39735;51.432;5.482;2023-08-17T13:34:16;10.63;;;6.80;;
53833;SDS011;39735;51.432;5.482;2023-08-17T13:37:40;25.30;;;7.20;;
53833;SDS011;39735;51.432;5.482;2023-08-17T13:41:04;14.18;;;7.18;;
53833;SDS011;39735;51.432;5.482;2023-08-17T13:44:28;15.80;;;8.70;;
53833;SDS011;39735;51.432;5.482;2023-08-17T13:47:52;20.85;;;7.22;;
53833;SDS011;39735;51.432;5.482;2023-08-17T13:51:16;23.98;;;8.45;;
53833;SDS011;39735;51.432;5.482;2023-08-17T13:54:40;49.42;;;9.65;;
53833;SDS011;39735;51.432;5.482;2023-08-17T13:58:04;29.33;;;6.97;;
53833;SDS011;39735;51.432;5.482;2023-08-17T14:01:28;26.58;;;8.18;;
53833;SDS011;39735;51.432;5.482;2023-08-17T14:04:52;13.82;;;8.07;;
53833;SDS011;39735;51.432;5.482;2023-08-17T14:08:16;21.85;;;8.65;;
53833;SDS011;39735;51.432;5.482;2023-08-17T14:11:39;15.05;;;9.10;;
53833;SDS011;39735;51.432;5.482;2023-08-17T14:15:04;23.60;;;9.57;;
53833;SDS011;39735;51.432;5.482;2023-08-17T14:18:28;19.52;;;9.30;;
53833;SDS011;39735;51.432;5.482;2023-08-17T14:21:52;22.55;;;11.60;;
53833;SDS011;39735;51.432;5.482;2023-08-17T14:25:15;23.83;;;9.10;;
53833;SDS011;39735;51.432;5.482;2023-08-17T14:28:40;18.02;;;9.18;;
53833;SDS011;39735;51.432;5.482;2023-08-17T14:32:04;14.30;;;8.65;;
53833;SDS011;39735;51.432;5.482;2023-08-17T14:35:28;19.67;;;8.93;;
53833;SDS011;39735;51.432;5.482;2023-08-17T14:38:52;24.20;;;9.80;;
53833;SDS011;39735;51.432;5.482;2023-08-17T14:42:16;27.20;;;9.55;;
53833;SDS011;39735;51.432;5.482;2023-08-17T14:45:40;13.77;;;9.02;;
53833;SDS011;39735;51.432;5.482;2023-08-17T14:49:04;20.70;;;11.15;;
53833;SDS011;39735;51.432;5.482;2023-08-17T14:52:28;25.77;;;9.38;;
53833;SDS011;39735;51.432;5.482;2023-08-17T14:55:52;19.73;;;10.52;;
53833;SDS011;39735;51.432;5.482;2023-08-17T14:59:17;16.10;;;9.45;;
53833;SDS011;39735;51.432;5.482;2023-08-17T15:02:41;25.60;;;9.38;;
53833;SDS011;39735;51.432;5.482;2023-08-17T15:06:05;11.48;;;9.13;;
53833;SDS011;39735;51.432;5.482;2023-08-17T15:09:35;17.30;;;9.38;;
53833;SDS011;39735;51.432;5.482;2023-08-17T15:12:59;21.88;;;12.02;;
53833;SDS011;39735;51.432;5.482;2023-08-17T15:16:23;18.20;;;9.95;;
53833;SDS011;39735;51.432;5.482;2023-08-17T15:19:47;18.10;;;10.88;;
53833;SDS011;39735;51.432;5.482;2023-08-17T15:23:11;23.67;;;9.60;;
53833;SDS011;39735;51.432;5.482;2023-08-17T15:26:35;24.60;;;10.38;;
53833;SDS011;39735;51.432;5.482;2023-08-17T15:29:58;22.17;;;11.15;;
53833;SDS011;39735;51.432;5.482;2023-08-17T15:33:27;23.98;;;11.07;;
53833;SDS011;39735;51.432;5.482;2023-08-17T15:36:51;16.23;;;10.50;;
53833;SDS011;39735;51.432;5.482;2023-08-17T15:40:15;35.72;;;10.77;;
53833;SDS011;39735;51.432;5.482;2023-08-17T15:43:39;26.15;;;14.10;;
53833;SDS011;39735;51.432;5.482;2023-08-17T15:47:02;37.30;;;14.18;;
53833;SDS011;39735;51.432;5.482;2023-08-17T15:50:26;21.55;;;12.43;;
53833;SDS011;39735;51.432;5.482;2023-08-17T15:53:52;25.17;;;14.15;;
53833;SDS011;39735;51.432;5.482;2023-08-17T15:57:16;25.00;;;14.32;;
53833;SDS011;39735;51.432;5.482;2023-08-17T16:00:43;22.70;;;13.27;;
53833;SDS011;39735;51.432;5.482;2023-08-17T16:04:07;22.63;;;11.57;;
53833;SDS011;39735;51.432;5.482;2023-08-17T16:07:31;20.52;;;11.20;;
53833;SDS011;39735;51.432;5.482;2023-08-17T16:10:55;25.55;;;11.95;;
53833;SDS011;39735;51.432;5.482;2023-08-17T16:14:19;36.38;;;15.45;;
53833;SDS011;39735;51.432;5.482;2023-08-17T16:17:43;25.42;;;11.18;;
53833;SDS011;39735;51.432;5.482;2023-08-17T16:21:07;25.52;;;11.85;;
53833;SDS011;39735;51.432;5.482;2023-08-17T16:24:31;27.70;;;12.00;;
53833;SDS011;39735;51.432;5.482;2023-08-17T16:27:57;21.98;;;12.52;;
53833;SDS011;39735;51.432;5.482;2023-08-17T16:31:21;24.33;;;14.15;;
53833;SDS011;39735;51.432;5.482;2023-08-17T16:34:45;21.05;;;10.95;;
53833;SDS011;39735;51.432;5.482;2023-08-17T16:38:09;26.70;;;12.65;;
53833;SDS011;39735;51.432;5.482;2023-08-17T16:41:33;25.90;;;11.65;;
53833;SDS011;39735;51.432;5.482;2023-08-17T16:44:56;23.75;;;11.95;;
53833;SDS011;39735;51.432;5.482;2023-08-17T16:48:20;21.85;;;11.52;;
53833;SDS011;39735;51.432;5.482;2023-08-17T16:51:44;18.23;;;10.85;;
53833;SDS011;39735;51.432;5.482;2023-08-17T16:55:08;21.05;;;12.10;;
53833;SDS011;39735;51.432;5.482;2023-08-17T16:58:32;20.20;;;11.90;;
53833;SDS011;39735;51.432;5.482;2023-08-17T17:01:57;30.65;;;12.20;;
53833;SDS011;39735;51.432;5.482;2023-08-17T17:05:21;22.27;;;12.00;;
53833;SDS011;39735;51.432;5.482;2023-08-17T17:08:45;31.20;;;13.13;;
53833;SDS011;39735;51.432;5.482;2023-08-17T17:12:11;41.53;;;10.93;;
53833;SDS011;39735;51.432;5.482;2023-08-17T17:15:35;20.52;;;9.75;;
53833;SDS011;39735;51.432;5.482;2023-08-17T17:18:59;19.90;;;11.75;;
53833;SDS011;39735;51.432;5.482;2023-08-17T17:22:23;26.38;;;12.52;;
53833;SDS011;39735;51.432;5.482;2023-08-17T17:25:46;26.95;;;11.85;;
53833;SDS011;39735;51.432;5.482;2023-08-17T17:29:10;18.55;;;10.25;;
53833;SDS011;39735;51.432;5.482;2023-08-17T17:32:34;29.13;;;12.50;;
53833;SDS011;39735;51.432;5.482;2023-08-17T17:35:58;24.92;;;11.13;;
53833;SDS011;39735;51.432;5.482;2023-08-17T17:39:22;13.52;;;10.73;;
53833;SDS011;39735;51.432;5.482;2023-08-17T17:42:46;22.95;;;11.60;;
53833;SDS011;39735;51.432;5.482;2023-08-17T17:46:11;23.17;;;11.27;;
53833;SDS011;39735;51.432;5.482;2023-08-17T17:49:35;24.85;;;10.73;;
53833;SDS011;39735;51.432;5.482;2023-08-17T17:52:59;31.05;;;12.15;;
53833;SDS011;39735;51.432;5.482;2023-08-17T18:00:20;18.25;;;10.93;;
53833;SDS011;39735;51.432;5.482;2023-08-17T18:03:44;29.67;;;12.93;;
53833;SDS011;39735;51.432;5.482;2023-08-17T18:07:08;19.35;;;11.45;;
53833;SDS011;39735;51.432;5.482;2023-08-17T18:10:33;16.88;;;10.90;;
53833;SDS011;39735;51.432;5.482;2023-08-17T18:13:57;20.45;;;11.40;;
53833;SDS011;39735;51.432;5.482;2023-08-17T18:17:21;24.02;;;12.00;;
53833;SDS011;39735;51.432;5.482;2023-08-17T18:20:45;29.63;;;12.00;;
53833;SDS011;39735;51.432;5.482;2023-08-17T18:24:09;27.00;;;14.13;;
53833;SDS011;39735;51.432;5.482;2023-08-17T18:27:36;27.25;;;11.85;;
53833;SDS011;39735;51.432;5.482;2023-08-17T18:31:00;28.13;;;11.77;;
53833;SDS011;39735;51.432;5.482;2023-08-17T18:34:24;17.38;;;11.45;;
53833;SDS011;39735;51.432;5.482;2023-08-17T18:37:48;37.60;;;13.77;;
53833;SDS011;39735;51.432;5.482;2023-08-17T18:41:12;28.95;;;11.93;;
53833;SDS011;39735;51.432;5.482;2023-08-17T18:44:36;19.10;;;11.40;;
53833;SDS011;39735;51.432;5.482;2023-08-17T18:48:00;17.90;;;10.15;;
53833;SDS011;39735;51.432;5.482;2023-08-17T18:51:24;21.77;;;15.45;;
53833;SDS011;39735;51.432;5.482;2023-08-17T18:55:00;24.60;;;11.68;;
53833;SDS011;39735;51.432;5.482;2023-08-17T18:58:24;29.48;;;13.32;;
53833;SDS011;39735;51.432;5.482;2023-08-17T19:01:48;13.88;;;9.85;;
53833;SDS011;39735;51.432;5.482;2023-08-17T19:05:12;23.80;;;14.00;;
53833;SDS011;39735;51.432;5.482;2023-08-17T19:08:36;29.52;;;10.95;;
53833;SDS011;39735;51.432;5.482;2023-08-17T19:12:00;30.20;;;11.10;;
53833;SDS011;39735;51.432;5.482;2023-08-17T19:15:24;17.80;;;13.15;;
53833;SDS011;39735;51.432;5.482;2023-08-17T19:18:49;18.15;;;12.27;;
53833;SDS011;39735;51.432;5.482;2023-08-17T19:22:13;13.55;;;12.13;;
53833;SDS011;39735;51.432;5.482;2023-08-17T19:25:37;17.67;;;11.90;;
53833;SDS011;39735;51.432;5.482;2023-08-17T19:29:00;22.38;;;11.73;;
53833;SDS011;39735;51.432;5.482;2023-08-17T19:32:24;13.18;;;10.70;;
53833;SDS011;39735;51.432;5.482;2023-08-17T19:35:48;16.23;;;11.70;;
53833;SDS011;39735;51.432;5.482;2023-08-17T19:39:12;35.33;;;13.27;;
53833;SDS011;39735;51.432;5.482;2023-08-17T19:42:36;16.38;;;13.07;;
53833;SDS011;39735;51.432;5.482;2023-08-17T19:46:00;22.20;;;11.73;;
53833;SDS011;39735;51.432;5.482;2023-08-17T19:49:24;23.65;;;14.50;;
53833;SDS011;39735;51.432;5.482;2023-08-17T19:52:48;23.20;;;13.82;;
53833;SDS011;39735;51.432;5.482;2023-08-17T19:56:12;16.13;;;11.68;;
53833;SDS011;39735;51.432;5.482;2023-08-17T19:59:36;24.75;;;12.43;;
53833;SDS011;39735;51.432;5.482;2023-08-17T20:03:00;30.80;;;11.85;;
53833;SDS011;39735;51.432;5.482;2023-08-17T20:06:28;17.88;;;12.50;;
53833;SDS011;39735;51.432;5.482;2023-08-17T20:09:52;15.05;;;12.10;;
53833;SDS011;39735;51.432;5.482;2023-08-17T20:13:16;14.80;;;12.23;;
53833;SDS011;39735;51.432;5.482;2023-08-17T20:16:39;26.95;;;16.38;;
53833;SDS011;39735;51.432;5.482;2023-08-17T20:20:04;20.25;;;13.88;;
53833;SDS011;39735;51.432;5.482;2023-08-17T20:23:30;35.50;;;14.40;;
53833;SDS011;39735;51.432;5.482;2023-08-17T20:26:55;27.00;;;16.63;;
53833;SDS011;39735;51.432;5.482;2023-08-17T20:30:19;31.80;;;18.85;;